sensor_id;sensor_type;location;lat;lon;timestamp;pressure;altitude;pressure_sealevel;temperature;humidity
6224;BME280;3145;42.726;23.342;2023-08-31T00:00:48;71050.34;;;-142.70;51.86
6224;BME280;3145;42.726;23.342;2023-08-31T00:03:16;71052.34;;;-142.70;51.72
6224;BME280;3145;42.726;23.342;2023-08-31T00:05:44;71046.31;;;-142.70;51.54
6224;BME280;3145;42.726;23.342;2023-08-31T00:08:12;71052.34;;;-142.70;51.82
6224;BME280;3145;42.726;23.342;2023-08-31T00:10:40;71050.34;;;-142.70;52.23
6224;BME280;3145;42.726;23.342;2023-08-31T00:13:07;71054.38;;;-142.70;52.63
6224;BME280;3145;42.726;23.342;2023-08-31T00:15:34;71066.44;;;-142.70;51.96
6224;BME280;3145;42.726;23.342;2023-08-31T00:18:01;71074.50;;;-142.70;52.31
6224;BME280;3145;42.726;23.342;2023-08-31T00:20:29;71068.47;;;-142.70;52.28
6224;BME280;3145;42.726;23.342;2023-08-31T00:22:56;71066.44;;;-142.70;51.95
6224;BME280;3145;42.726;23.342;2023-08-31T00:25:23;71074.50;;;-142.70;52.21
6224;BME280;3145;42.726;23.342;2023-08-31T00:27:51;71088.59;;;-142.70;52.54
6224;BME280;3145;42.726;23.342;2023-08-31T00:30:19;71088.59;;;-142.70;52.20
6224;BME280;3145;42.726;23.342;2023-08-31T00:32:46;71100.69;;;-142.70;52.36
6224;BME280;3145;42.726;23.342;2023-08-31T00:35:13;71102.69;;;-142.70;52.45
6224;BME280;3145;42.726;23.342;2023-08-31T00:37:40;71096.66;;;-142.70;52.53
6224;BME280;3145;42.726;23.342;2023-08-31T00:40:08;71102.69;;;-142.70;52.55
6224;BME280;3145;42.726;23.342;2023-08-31T00:42:37;71098.66;;;-142.70;52.53
6224;BME280;3145;42.726;23.342;2023-08-31T00:45:06;71100.69;;;-142.70;52.25
6224;BME280;3145;42.726;23.342;2023-08-31T00:47:33;71102.69;;;-142.70;52.10
6224;BME280;3145;42.726;23.342;2023-08-31T00:50:00;71114.78;;;-142.70;51.99
6224;BME280;3145;42.726;23.342;2023-08-31T00:52:27;71116.78;;;-142.70;52.42
6224;BME280;3145;42.726;23.342;2023-08-31T00:54:54;71114.78;;;-142.70;52.22
6224;BME280;3145;42.726;23.342;2023-08-31T00:57:21;71118.81;;;-142.70;52.61
6224;BME280;3145;42.726;23.342;2023-08-31T00:59:47;71116.78;;;-142.70;52.71
6224;BME280;3145;42.726;23.342;2023-08-31T01:02:19;71116.78;;;-142.70;52.69
6224;BME280;3145;42.726;23.342;2023-08-31T01:04:55;71118.81;;;-142.70;52.55
6224;BME280;3145;42.726;23.342;2023-08-31T01:07:31;71110.75;;;-142.70;52.53
6224;BME280;3145;42.726;23.342;2023-08-31T01:10:06;71118.81;;;-142.70;52.55
6224;BME280;3145;42.726;23.342;2023-08-31T01:12:37;71124.84;;;-142.70;52.66
6224;BME280;3145;42.726;23.342;2023-08-31T01:15:10;71130.88;;;-142.70;52.93
6224;BME280;3145;42.726;23.342;2023-08-31T01:17:41;71130.88;;;-142.70;52.93
6224;BME280;3145;42.726;23.342;2023-08-31T01:20:11;71130.88;;;-142.70;52.83
6224;BME280;3145;42.726;23.342;2023-08-31T01:22:43;71147.00;;;-142.70;53.16
6224;BME280;3145;42.726;23.342;2023-08-31T01:25:15;71161.09;;;-142.70;53.43
6224;BME280;3145;42.726;23.342;2023-08-31T01:27:43;71175.19;;;-142.70;53.45
6224;BME280;3145;42.726;23.342;2023-08-31T01:30:10;71183.25;;;-142.70;53.91
6224;BME280;3145;42.726;23.342;2023-08-31T01:32:37;71183.25;;;-142.70;54.29
6224;BME280;3145;42.726;23.342;2023-08-31T01:35:05;71179.22;;;-142.70;54.89
6224;BME280;3145;42.726;23.342;2023-08-31T01:37:37;71163.09;;;-142.70;55.07
6224;BME280;3145;42.726;23.342;2023-08-31T01:40:11;71161.09;;;-142.70;54.90
6224;BME280;3145;42.726;23.342;2023-08-31T01:42:43;71165.13;;;-142.70;55.18
6224;BME280;3145;42.726;23.342;2023-08-31T01:45:14;71161.09;;;-142.70;54.89
6224;BME280;3145;42.726;23.342;2023-08-31T01:47:41;71163.09;;;-142.70;54.80
6224;BME280;3145;42.726;23.342;2023-08-31T01:50:09;71155.06;;;-142.70;54.57
6224;BME280;3145;42.726;23.342;2023-08-31T01:52:35;71167.13;;;-142.70;54.78
6224;BME280;3145;42.726;23.342;2023-08-31T01:55:03;71163.09;;;-142.70;54.69
6224;BME280;3145;42.726;23.342;2023-08-31T01:57:30;71163.09;;;-142.70;54.59
6224;BME280;3145;42.726;23.342;2023-08-31T01:59:58;71167.13;;;-142.70;54.45
6224;BME280;3145;42.726;23.342;2023-08-31T02:02:25;71171.16;;;-142.70;54.57
6224;BME280;3145;42.726;23.342;2023-08-31T02:04:52;71175.19;;;-142.70;54.64
6224;BME280;3145;42.726;23.342;2023-08-31T02:07:18;71179.22;;;-142.70;54.59
6224;BME280;3145;42.726;23.342;2023-08-31T02:09:45;71179.22;;;-142.70;54.95
6224;BME280;3145;42.726;23.342;2023-08-31T02:12:12;71187.28;;;-142.70;54.94
6224;BME280;3145;42.726;23.342;2023-08-31T02:14:38;71187.28;;;-142.70;55.12
6224;BME280;3145;42.726;23.342;2023-08-31T02:17:07;71189.28;;;-142.70;55.17
6224;BME280;3145;42.726;23.342;2023-08-31T02:19:33;71189.28;;;-142.70;55.32
6224;BME280;3145;42.726;23.342;2023-08-31T02:22:00;71199.34;;;-142.70;55.52
6224;BME280;3145;42.726;23.342;2023-08-31T02:24:27;71195.31;;;-142.70;55.40
6224;BME280;3145;42.726;23.342;2023-08-31T02:26:53;71195.31;;;-142.70;55.27
6224;BME280;3145;42.726;23.342;2023-08-31T02:29:20;71205.38;;;-142.70;55.61
6224;BME280;3145;42.726;23.342;2023-08-31T02:31:47;71207.41;;;-142.70;55.85
6224;BME280;3145;42.726;23.342;2023-08-31T02:34:15;71215.47;;;-142.70;56.00
6224;BME280;3145;42.726;23.342;2023-08-31T02:36:42;71211.44;;;-142.70;55.85
6224;BME280;3145;42.726;23.342;2023-08-31T02:39:08;71223.50;;;-142.70;55.69
6224;BME280;3145;42.726;23.342;2023-08-31T02:41:35;71243.66;;;-142.70;56.52
6224;BME280;3145;42.726;23.342;2023-08-31T02:44:02;71255.72;;;-142.70;56.68
6224;BME280;3145;42.726;23.342;2023-08-31T02:46:29;71312.13;;;-142.70;58.43
6224;BME280;3145;42.726;23.342;2023-08-31T02:48:55;71342.31;;;-142.70;59.15
6224;BME280;3145;42.726;23.342;2023-08-31T02:51:24;71374.56;;;-142.70;60.43
6224;BME280;3145;42.726;23.342;2023-08-31T02:53:50;71388.66;;;-142.70;61.11
6224;BME280;3145;42.726;23.342;2023-08-31T02:56:18;71388.66;;;-142.70;61.60
6224;BME280;3145;42.726;23.342;2023-08-31T02:58:45;71396.69;;;-142.70;61.99
6224;BME280;3145;42.726;23.342;2023-08-31T03:01:13;71394.69;;;-142.70;62.05
6224;BME280;3145;42.726;23.342;2023-08-31T03:03:41;71388.66;;;-142.70;61.81
6224;BME280;3145;42.726;23.342;2023-08-31T03:06:08;71378.56;;;-142.70;61.56
6224;BME280;3145;42.726;23.342;2023-08-31T03:08:37;71384.63;;;-142.70;61.67
6224;BME280;3145;42.726;23.342;2023-08-31T03:11:05;71392.69;;;-142.70;61.77
6224;BME280;3145;42.726;23.342;2023-08-31T03:13:32;71404.75;;;-142.70;61.98
6224;BME280;3145;42.726;23.342;2023-08-31T03:16:00;71400.72;;;-142.70;61.99
6224;BME280;3145;42.726;23.342;2023-08-31T03:18:27;71412.81;;;-142.70;61.74
6224;BME280;3145;42.726;23.342;2023-08-31T03:20:54;71428.91;;;-142.70;62.38
6224;BME280;3145;42.726;23.342;2023-08-31T03:23:21;71451.06;;;-142.70;63.24
6224;BME280;3145;42.726;23.342;2023-08-31T03:25:49;71459.13;;;-142.70;63.59
6224;BME280;3145;42.726;23.342;2023-08-31T03:28:16;71475.25;;;-142.70;64.08
6224;BME280;3145;42.726;23.342;2023-08-31T03:30:42;71507.47;;;-142.70;64.89
6224;BME280;3145;42.726;23.342;2023-08-31T03:33:10;71517.53;;;-142.70;65.64
6224;BME280;3145;42.726;23.342;2023-08-31T03:35:37;71521.56;;;-142.70;66.17
6224;BME280;3145;42.726;23.342;2023-08-31T03:38:04;71525.59;;;-142.70;66.57
6224;BME280;3145;42.726;23.342;2023-08-31T03:40:31;71521.56;;;-142.70;67.02
6224;BME280;3145;42.726;23.342;2023-08-31T03:42:59;71525.59;;;-142.70;66.66
6224;BME280;3145;42.726;23.342;2023-08-31T03:45:26;71521.56;;;-142.70;66.70
6224;BME280;3145;42.726;23.342;2023-08-31T03:47:53;71529.63;;;-142.70;67.20
6224;BME280;3145;42.726;23.342;2023-08-31T03:50:20;71521.56;;;-142.70;67.10
6224;BME280;3145;42.726;23.342;2023-08-31T03:52:47;71517.53;;;-142.70;67.01
6224;BME280;3145;42.726;23.342;2023-08-31T03:55:14;71501.44;;;-142.70;66.64
6224;BME280;3145;42.726;23.342;2023-08-31T03:57:40;71485.31;;;-142.70;66.09
6224;BME280;3145;42.726;23.342;2023-08-31T04:00:10;71477.25;;;-142.70;65.52
6224;BME280;3145;42.726;23.342;2023-08-31T04:02:38;71465.16;;;-142.70;65.09
6224;BME280;3145;42.726;23.342;2023-08-31T04:05:05;71457.13;;;-142.70;64.62
6224;BME280;3145;42.726;23.342;2023-08-31T04:07:34;71445.03;;;-142.70;64.33
6224;BME280;3145;42.726;23.342;2023-08-31T04:10:01;71445.03;;;-142.70;64.06
6224;BME280;3145;42.726;23.342;2023-08-31T04:12:29;71441.00;;;-142.70;63.71
6224;BME280;3145;42.726;23.342;2023-08-31T04:14:56;71432.94;;;-142.70;63.29
6224;BME280;3145;42.726;23.342;2023-08-31T04:17:24;71418.84;;;-142.70;63.13
6224;BME280;3145;42.726;23.342;2023-08-31T04:19:51;71402.75;;;-142.70;62.69
6224;BME280;3145;42.726;23.342;2023-08-31T04:22:18;71382.59;;;-142.70;62.12
6224;BME280;3145;42.726;23.342;2023-08-31T04:24:44;71376.56;;;-142.70;61.70
6224;BME280;3145;42.726;23.342;2023-08-31T04:27:11;71360.44;;;-142.70;61.46
6224;BME280;3145;42.726;23.342;2023-08-31T04:29:38;71324.19;;;-142.70;60.76
6224;BME280;3145;42.726;23.342;2023-08-31T04:32:05;71279.91;;;-142.70;60.30
6224;BME280;3145;42.726;23.342;2023-08-31T04:34:33;71239.63;;;-142.70;59.21
6224;BME280;3145;42.726;23.342;2023-08-31T04:37:00;71207.41;;;-142.70;57.74
6224;BME280;3145;42.726;23.342;2023-08-31T04:39:27;71167.13;;;-142.70;56.54
6224;BME280;3145;42.726;23.342;2023-08-31T04:41:54;71153.03;;;-142.70;56.28
6224;BME280;3145;42.726;23.342;2023-08-31T04:44:21;71124.84;;;-142.70;56.05
6224;BME280;3145;42.726;23.342;2023-08-31T04:46:47;71090.63;;;-142.70;54.99
6224;BME280;3145;42.726;23.342;2023-08-31T04:49:14;71062.41;;;-142.70;53.65
6224;BME280;3145;42.726;23.342;2023-08-31T04:51:43;71046.31;;;-142.70;52.90
6224;BME280;3145;42.726;23.342;2023-08-31T04:54:10;71010.06;;;-142.70;51.97
6224;BME280;3145;42.726;23.342;2023-08-31T04:56:37;70977.84;;;-142.70;50.13
6224;BME280;3145;42.726;23.342;2023-08-31T04:59:04;70947.66;;;-142.70;49.26
6224;BME280;3145;42.726;23.342;2023-08-31T05:01:30;70913.41;;;-142.70;48.06
6224;BME280;3145;42.726;23.342;2023-08-31T05:03:57;70893.28;;;-142.70;47.04
6224;BME280;3145;42.726;23.342;2023-08-31T05:06:24;70885.22;;;-142.70;46.06
6224;BME280;3145;42.726;23.342;2023-08-31T05:08:52;70905.34;;;-142.70;45.55
6224;BME280;3145;42.726;23.342;2023-08-31T05:11:19;70921.47;;;-142.70;46.13
6224;BME280;3145;42.726;23.342;2023-08-31T05:13:46;70941.59;;;-142.70;47.11
6224;BME280;3145;42.726;23.342;2023-08-31T05:16:13;70971.81;;;-142.70;47.14
6224;BME280;3145;42.726;23.342;2023-08-31T05:18:40;71034.22;;;-142.70;49.71
6224;BME280;3145;42.726;23.342;2023-08-31T05:21:07;71130.88;;;-142.70;51.48
6224;BME280;3145;42.726;23.342;2023-08-31T05:23:34;71138.94;;;-142.70;51.90
6224;BME280;3145;42.726;23.342;2023-08-31T05:26:02;71134.91;;;-142.70;52.00
6224;BME280;3145;42.726;23.342;2023-08-31T05:28:29;71106.72;;;-142.70;51.53
6224;BME280;3145;42.726;23.342;2023-08-31T05:30:57;71102.69;;;-142.70;51.02
6224;BME280;3145;42.726;23.342;2023-08-31T05:33:24;71102.69;;;-142.70;50.99
6224;BME280;3145;42.726;23.342;2023-08-31T05:35:53;71094.63;;;-142.70;51.01
6224;BME280;3145;42.726;23.342;2023-08-31T05:38:20;71046.31;;;-142.70;50.07
6224;BME280;3145;42.726;23.342;2023-08-31T05:40:47;71034.22;;;-142.70;49.42
6224;BME280;3145;42.726;23.342;2023-08-31T05:43:15;71012.09;;;-142.70;49.05
6224;BME280;3145;42.726;23.342;2023-08-31T05:45:42;70985.91;;;-142.70;48.80
6224;BME280;3145;42.726;23.342;2023-08-31T05:48:09;70923.47;;;-142.70;47.94
6224;BME280;3145;42.726;23.342;2023-08-31T05:50:36;70846.97;;;-142.70;47.29
6224;BME280;3145;42.726;23.342;2023-08-31T05:53:03;70778.50;;;-142.70;44.82
6224;BME280;3145;42.726;23.342;2023-08-31T05:55:30;70746.28;;;-142.70;43.87
6224;BME280;3145;42.726;23.342;2023-08-31T05:57:58;70693.94;;;-142.70;43.50
6224;BME280;3145;42.726;23.342;2023-08-31T06:00:27;70647.63;;;-142.70;42.46
6224;BME280;3145;42.726;23.342;2023-08-31T06:02:54;70615.41;;;-142.70;41.32
6224;BME280;3145;42.726;23.342;2023-08-31T06:05:20;70617.44;;;-142.70;40.79
6224;BME280;3145;42.726;23.342;2023-08-31T06:07:47;70577.16;;;-142.70;40.92
6224;BME280;3145;42.726;23.342;2023-08-31T06:10:14;70538.91;;;-142.70;39.74
6224;BME280;3145;42.726;23.342;2023-08-31T06:12:41;70494.63;;;-142.70;39.55
6224;BME280;3145;42.726;23.342;2023-08-31T06:15:08;70460.41;;;-142.70;38.30
6224;BME280;3145;42.726;23.342;2023-08-31T06:17:36;70420.13;;;-142.70;38.33
6224;BME280;3145;42.726;23.342;2023-08-31T06:20:03;70410.06;;;-142.70;37.05
6224;BME280;3145;42.726;23.342;2023-08-31T06:22:31;70377.84;;;-142.70;37.60
6224;BME280;3145;42.726;23.342;2023-08-31T06:24:58;70327.53;;;-142.70;36.61
6224;BME280;3145;42.726;23.342;2023-08-31T06:27:25;70309.41;;;-142.70;35.87
6224;BME280;3145;42.726;23.342;2023-08-31T06:29:51;70285.25;;;-142.70;35.83
6224;BME280;3145;42.726;23.342;2023-08-31T06:32:18;70273.16;;;-142.70;34.82
6224;BME280;3145;42.726;23.342;2023-08-31T06:34:46;70244.97;;;-142.70;35.30
6224;BME280;3145;42.726;23.342;2023-08-31T06:37:13;70222.84;;;-142.70;34.90
6224;BME280;3145;42.726;23.342;2023-08-31T06:39:40;70194.66;;;-142.70;35.07
6224;BME280;3145;42.726;23.342;2023-08-31T06:42:07;70160.44;;;-142.70;34.38
6224;BME280;3145;42.726;23.342;2023-08-31T06:44:33;70140.28;;;-142.70;33.71
6224;BME280;3145;42.726;23.342;2023-08-31T06:47:00;70136.28;;;-142.70;32.75
6224;BME280;3145;42.726;23.342;2023-08-31T06:49:28;70118.16;;;-142.70;32.87
6224;BME280;3145;42.726;23.342;2023-08-31T06:51:59;70100.03;;;-142.70;32.79
6224;BME280;3145;42.726;23.342;2023-08-31T06:54:27;70075.88;;;-142.70;32.75
6224;BME280;3145;42.726;23.342;2023-08-31T06:56:54;70067.81;;;-142.70;32.04
6224;BME280;3145;42.726;23.342;2023-08-31T06:59:21;70041.66;;;-142.70;31.08
6224;BME280;3145;42.726;23.342;2023-08-31T07:01:47;70098.03;;;-142.70;31.93
6224;BME280;3145;42.726;23.342;2023-08-31T07:04:14;70091.97;;;-142.70;31.81
6224;BME280;3145;42.726;23.342;2023-08-31T07:06:41;70063.81;;;-142.70;31.27
6224;BME280;3145;42.726;23.342;2023-08-31T07:09:09;70083.94;;;-142.70;31.66
6224;BME280;3145;42.726;23.342;2023-08-31T07:11:35;70045.69;;;-142.70;31.30
6224;BME280;3145;42.726;23.342;2023-08-31T07:14:02;70031.59;;;-142.70;31.57
6224;BME280;3145;42.726;23.342;2023-08-31T07:16:29;70035.63;;;-142.70;30.79
6224;BME280;3145;42.726;23.342;2023-08-31T07:18:56;70023.53;;;-142.70;30.65
6224;BME280;3145;42.726;23.342;2023-08-31T07:21:22;70096.00;;;-142.70;31.22
6224;BME280;3145;42.726;23.342;2023-08-31T07:23:49;70156.41;;;-142.70;31.62
6224;BME280;3145;42.726;23.342;2023-08-31T07:26:17;70152.38;;;-142.70;31.65
6224;BME280;3145;42.726;23.342;2023-08-31T07:28:44;70261.09;;;-142.70;32.71
6224;BME280;3145;42.726;23.342;2023-08-31T07:31:10;70297.31;;;-142.70;33.25
6224;BME280;3145;42.726;23.342;2023-08-31T07:33:37;70299.34;;;-142.70;33.37
6224;BME280;3145;42.726;23.342;2023-08-31T07:36:04;70337.59;;;-142.70;33.29
6224;BME280;3145;42.726;23.342;2023-08-31T07:38:32;70317.47;;;-142.70;34.00
6224;BME280;3145;42.726;23.342;2023-08-31T07:40:59;70309.41;;;-142.70;33.85
6224;BME280;3145;42.726;23.342;2023-08-31T07:43:28;70257.06;;;-142.70;33.53
6224;BME280;3145;42.726;23.342;2023-08-31T07:45:55;70220.81;;;-142.70;33.24
6224;BME280;3145;42.726;23.342;2023-08-31T07:48:21;70192.63;;;-142.70;32.54
6224;BME280;3145;42.726;23.342;2023-08-31T07:50:48;70160.44;;;-142.70;32.26
6224;BME280;3145;42.726;23.342;2023-08-31T07:53:15;70206.72;;;-142.70;32.26
6224;BME280;3145;42.726;23.342;2023-08-31T07:55:50;70218.81;;;-142.70;32.72
6224;BME280;3145;42.726;23.342;2023-08-31T07:58:18;70214.78;;;-142.70;32.86
6224;BME280;3145;42.726;23.342;2023-08-31T08:00:46;70212.78;;;-142.70;32.74
6224;BME280;3145;42.726;23.342;2023-08-31T08:03:13;70240.94;;;-142.70;32.98
6224;BME280;3145;42.726;23.342;2023-08-31T08:05:39;70283.22;;;-142.70;33.59
6224;BME280;3145;42.726;23.342;2023-08-31T08:08:06;70240.94;;;-142.70;33.72
6224;BME280;3145;42.726;23.342;2023-08-31T08:10:33;70168.47;;;-142.70;33.27
6224;BME280;3145;42.726;23.342;2023-08-31T08:13:00;70152.38;;;-142.70;32.74
6224;BME280;3145;42.726;23.342;2023-08-31T08:15:26;70102.03;;;-142.70;32.00
6224;BME280;3145;42.726;23.342;2023-08-31T08:17:54;70071.84;;;-142.70;31.81
6224;BME280;3145;42.726;23.342;2023-08-31T08:20:22;70098.03;;;-142.70;31.36
6224;BME280;3145;42.726;23.342;2023-08-31T08:22:49;70031.59;;;-142.70;31.31
6224;BME280;3145;42.726;23.342;2023-08-31T08:25:17;70023.53;;;-142.70;30.38
6224;BME280;3145;42.726;23.342;2023-08-31T08:27:44;70007.44;;;-142.70;30.70
6224;BME280;3145;42.726;23.342;2023-08-31T08:30:11;69991.34;;;-142.70;30.88
6224;BME280;3145;42.726;23.342;2023-08-31T08:32:38;69947.03;;;-142.70;29.87
6224;BME280;3145;42.726;23.342;2023-08-31T08:35:07;69902.75;;;-142.70;29.52
6224;BME280;3145;42.726;23.342;2023-08-31T08:37:34;69888.66;;;-142.70;28.24
6224;BME280;3145;42.726;23.342;2023-08-31T08:40:01;69906.78;;;-142.70;27.77
6224;BME280;3145;42.726;23.342;2023-08-31T08:42:30;69870.56;;;-142.70;27.97
6224;BME280;3145;42.726;23.342;2023-08-31T08:44:57;69850.41;;;-142.70;27.85
6224;BME280;3145;42.726;23.342;2023-08-31T08:47:25;69898.72;;;-142.70;27.48
6224;BME280;3145;42.726;23.342;2023-08-31T08:49:53;69930.94;;;-142.70;28.31
6224;BME280;3145;42.726;23.342;2023-08-31T08:52:21;69876.59;;;-142.70;29.01
6224;BME280;3145;42.726;23.342;2023-08-31T08:54:49;69858.47;;;-142.70;29.44
6224;BME280;3145;42.726;23.342;2023-08-31T08:57:16;69822.25;;;-142.70;29.46
6224;BME280;3145;42.726;23.342;2023-08-31T08:59:42;69798.09;;;-142.70;28.60
6224;BME280;3145;42.726;23.342;2023-08-31T09:02:10;69810.16;;;-142.70;28.73
6224;BME280;3145;42.726;23.342;2023-08-31T09:04:37;69814.19;;;-142.70;28.74
6224;BME280;3145;42.726;23.342;2023-08-31T09:07:04;69842.38;;;-142.70;28.41
6224;BME280;3145;42.726;23.342;2023-08-31T09:09:47;69814.19;;;-142.70;27.87
6224;BME280;3145;42.726;23.342;2023-08-31T09:12:14;69870.56;;;-142.70;28.52
6224;BME280;3145;42.726;23.342;2023-08-31T09:14:41;69858.47;;;-142.70;27.84
6224;BME280;3145;42.726;23.342;2023-08-31T09:17:08;69902.75;;;-142.70;27.24
6224;BME280;3145;42.726;23.342;2023-08-31T09:19:35;69882.63;;;-142.70;27.93
6224;BME280;3145;42.726;23.342;2023-08-31T09:22:02;69882.63;;;-142.70;27.35
6224;BME280;3145;42.726;23.342;2023-08-31T09:24:29;69834.31;;;-142.70;28.06
6224;BME280;3145;42.726;23.342;2023-08-31T09:26:58;69878.59;;;-142.70;27.38
6224;BME280;3145;42.726;23.342;2023-08-31T09:29:25;69842.38;;;-142.70;27.12
6224;BME280;3145;42.726;23.342;2023-08-31T09:31:51;69850.41;;;-142.70;26.57
6224;BME280;3145;42.726;23.342;2023-08-31T09:34:18;69828.28;;;-142.70;27.12
6224;BME280;3145;42.726;23.342;2023-08-31T09:36:45;69806.13;;;-142.70;26.69
6224;BME280;3145;42.726;23.342;2023-08-31T09:39:14;69773.94;;;-142.70;26.57
6224;BME280;3145;42.726;23.342;2023-08-31T09:41:52;69765.88;;;-142.70;26.19
6224;BME280;3145;42.726;23.342;2023-08-31T09:44:20;69781.97;;;-142.70;25.94
6224;BME280;3145;42.726;23.342;2023-08-31T09:46:47;69771.91;;;-142.70;26.22
6224;BME280;3145;42.726;23.342;2023-08-31T09:49:16;69767.91;;;-142.70;26.16
6224;BME280;3145;42.726;23.342;2023-08-31T09:51:45;69826.28;;;-142.70;26.06
6224;BME280;3145;42.726;23.342;2023-08-31T09:54:13;69786.00;;;-142.70;26.34
6224;BME280;3145;42.726;23.342;2023-08-31T09:56:41;69788.03;;;-142.70;25.80
6224;BME280;3145;42.726;23.342;2023-08-31T09:59:08;69786.00;;;-142.70;25.81
6224;BME280;3145;42.726;23.342;2023-08-31T10:01:37;69794.06;;;-142.70;26.48
6224;BME280;3145;42.726;23.342;2023-08-31T10:04:04;69781.97;;;-142.70;26.23
6224;BME280;3145;42.726;23.342;2023-08-31T10:06:34;69761.84;;;-142.70;26.03
6224;BME280;3145;42.726;23.342;2023-08-31T10:09:01;69753.81;;;-142.70;25.42
6224;BME280;3145;42.726;23.342;2023-08-31T10:11:29;69777.97;;;-142.70;25.92
6224;BME280;3145;42.726;23.342;2023-08-31T10:13:58;69798.09;;;-142.70;25.94
6224;BME280;3145;42.726;23.342;2023-08-31T10:16:25;69794.06;;;-142.70;26.50
6224;BME280;3145;42.726;23.342;2023-08-31T10:18:54;69773.94;;;-142.70;26.04
6224;BME280;3145;42.726;23.342;2023-08-31T10:21:22;69788.03;;;-142.70;25.83
6224;BME280;3145;42.726;23.342;2023-08-31T10:23:49;69773.94;;;-142.70;25.97
6224;BME280;3145;42.726;23.342;2023-08-31T10:26:26;69798.09;;;-142.70;25.97
6224;BME280;3145;42.726;23.342;2023-08-31T10:28:54;69802.13;;;-142.70;25.89
6224;BME280;3145;42.726;23.342;2023-08-31T10:31:21;69798.09;;;-142.70;25.36
6224;BME280;3145;42.726;23.342;2023-08-31T10:33:56;69765.88;;;-142.70;25.30
6224;BME280;3145;42.726;23.342;2023-08-31T10:36:36;69775.94;;;-142.70;24.95
6224;BME280;3145;42.726;23.342;2023-08-31T10:39:11;69830.28;;;-142.70;25.25
6224;BME280;3145;42.726;23.342;2023-08-31T10:41:38;69842.38;;;-142.70;25.61
6224;BME280;3145;42.726;23.342;2023-08-31T10:44:18;69862.50;;;-142.70;25.47
6224;BME280;3145;42.726;23.342;2023-08-31T10:46:46;69886.66;;;-142.70;26.43
6224;BME280;3145;42.726;23.342;2023-08-31T10:49:15;69922.88;;;-142.70;26.22
6224;BME280;3145;42.726;23.342;2023-08-31T10:51:44;69951.06;;;-142.70;26.39
6224;BME280;3145;42.726;23.342;2023-08-31T10:54:12;69971.19;;;-142.70;26.85
6224;BME280;3145;42.726;23.342;2023-08-31T10:57:01;69975.22;;;-142.70;26.92
6224;BME280;3145;42.726;23.342;2023-08-31T10:59:45;69979.25;;;-142.70;27.17
6224;BME280;3145;42.726;23.342;2023-08-31T11:02:33;69945.03;;;-142.70;27.33
6224;BME280;3145;42.726;23.342;2023-08-31T11:05:06;69967.19;;;-142.70;27.60
6224;BME280;3145;42.726;23.342;2023-08-31T11:07:33;69930.94;;;-142.70;27.41
6224;BME280;3145;42.726;23.342;2023-08-31T11:10:15;69894.72;;;-142.70;27.15
6224;BME280;3145;42.726;23.342;2023-08-31T11:12:44;69854.44;;;-142.70;27.30
6224;BME280;3145;42.726;23.342;2023-08-31T11:15:12;69842.38;;;-142.70;26.49
6224;BME280;3145;42.726;23.342;2023-08-31T11:17:40;69850.41;;;-142.70;26.52
6224;BME280;3145;42.726;23.342;2023-08-31T11:20:12;69900.75;;;-142.70;27.33
6224;BME280;3145;42.726;23.342;2023-08-31T11:22:40;69941.00;;;-142.70;27.08
6224;BME280;3145;42.726;23.342;2023-08-31T11:25:08;69967.19;;;-142.70;27.36
6224;BME280;3145;42.726;23.342;2023-08-31T11:27:35;69975.22;;;-142.70;27.60
6224;BME280;3145;42.726;23.342;2023-08-31T11:30:03;69969.19;;;-142.70;27.96
6224;BME280;3145;42.726;23.342;2023-08-31T11:32:30;69977.25;;;-142.70;28.18
6224;BME280;3145;42.726;23.342;2023-08-31T11:34:56;69985.28;;;-142.70;27.68
6224;BME280;3145;42.726;23.342;2023-08-31T11:37:24;70007.44;;;-142.70;27.83
6224;BME280;3145;42.726;23.342;2023-08-31T11:39:53;70011.47;;;-142.70;28.26
6224;BME280;3145;42.726;23.342;2023-08-31T11:42:21;70043.66;;;-142.70;29.01
6224;BME280;3145;42.726;23.342;2023-08-31T11:44:48;70057.75;;;-142.70;29.29
6224;BME280;3145;42.726;23.342;2023-08-31T11:47:16;70071.84;;;-142.70;29.52
6224;BME280;3145;42.726;23.342;2023-08-31T11:49:43;70087.97;;;-142.70;29.44
6224;BME280;3145;42.726;23.342;2023-08-31T11:52:10;70077.91;;;-142.70;29.50
6224;BME280;3145;42.726;23.342;2023-08-31T11:54:42;70043.66;;;-142.70;29.61
6224;BME280;3145;42.726;23.342;2023-08-31T11:57:09;69975.22;;;-142.70;28.83
6224;BME280;3145;42.726;23.342;2023-08-31T11:59:38;69955.09;;;-142.70;28.46
6224;BME280;3145;42.726;23.342;2023-08-31T12:02:05;69971.19;;;-142.70;28.27
6224;BME280;3145;42.726;23.342;2023-08-31T12:04:33;69995.34;;;-142.70;28.16
6224;BME280;3145;42.726;23.342;2023-08-31T12:07:02;69983.28;;;-142.70;28.35
6224;BME280;3145;42.726;23.342;2023-08-31T12:09:30;69947.03;;;-142.70;28.13
6224;BME280;3145;42.726;23.342;2023-08-31T12:11:58;69920.88;;;-142.70;28.08
6224;BME280;3145;42.726;23.342;2023-08-31T12:14:26;69922.88;;;-142.70;28.29
6224;BME280;3145;42.726;23.342;2023-08-31T12:17:00;69926.91;;;-142.70;27.94
6224;BME280;3145;42.726;23.342;2023-08-31T12:19:28;69936.97;;;-142.70;27.90
6224;BME280;3145;42.726;23.342;2023-08-31T12:21:56;69922.88;;;-142.70;27.85
6224;BME280;3145;42.726;23.342;2023-08-31T12:24:23;69930.94;;;-142.70;27.50
6224;BME280;3145;42.726;23.342;2023-08-31T12:26:50;69922.88;;;-142.70;27.81
6224;BME280;3145;42.726;23.342;2023-08-31T12:29:20;69926.91;;;-142.70;27.90
6224;BME280;3145;42.726;23.342;2023-08-31T12:31:47;69924.91;;;-142.70;27.78
6224;BME280;3145;42.726;23.342;2023-08-31T12:34:14;69930.94;;;-142.70;28.45
6224;BME280;3145;42.726;23.342;2023-08-31T12:36:41;69910.81;;;-142.70;28.31
6224;BME280;3145;42.726;23.342;2023-08-31T12:39:08;69906.78;;;-142.70;28.41
6224;BME280;3145;42.726;23.342;2023-08-31T12:41:36;69902.75;;;-142.70;27.50
6224;BME280;3145;42.726;23.342;2023-08-31T12:44:03;69910.81;;;-142.70;27.60
6224;BME280;3145;42.726;23.342;2023-08-31T12:46:32;69896.72;;;-142.70;27.60
6224;BME280;3145;42.726;23.342;2023-08-31T12:48:59;69886.66;;;-142.70;27.79
6224;BME280;3145;42.726;23.342;2023-08-31T12:51:26;69910.81;;;-142.70;27.68
6224;BME280;3145;42.726;23.342;2023-08-31T12:53:53;69900.75;;;-142.70;27.21